createdAt,value
2018-09-09T00:00:42.713Z,14.40
2018-09-09T00:03:11.183Z,14.40
2018-09-09T00:05:39.618Z,14.40
2018-09-09T00:08:08.154Z,14.50
2018-09-09T00:10:36.583Z,14.40
2018-09-09T00:13:05.114Z,14.40
2018-09-09T00:15:33.570Z,14.50
2018-09-09T00:18:02.028Z,14.50
2018-09-09T00:20:30.476Z,14.50
2018-09-09T00:22:59.030Z,14.50
2018-09-09T00:25:27.497Z,14.60
2018-09-09T00:27:55.935Z,14.60
2018-09-09T00:30:24.969Z,14.60
2018-09-09T00:32:53.456Z,14.60
2018-09-09T00:35:23.073Z,14.50
2018-09-09T00:37:51.567Z,14.50
2018-09-09T00:40:20.127Z,14.50
2018-09-09T00:42:48.695Z,14.50
2018-09-09T00:45:17.161Z,14.50
2018-09-09T00:47:46.313Z,14.50
2018-09-09T00:50:20.167Z,14.40
2018-09-09T00:52:54.491Z,14.40
2018-09-09T00:55:22.935Z,14.40
2018-09-09T00:57:51.493Z,14.40
2018-09-09T01:00:24.894Z,14.40
2018-09-09T01:02:53.367Z,14.40
2018-09-09T01:05:21.875Z,14.40
2018-09-09T01:07:50.249Z,14.30
2018-09-09T01:10:18.729Z,14.30
2018-09-09T01:12:47.270Z,14.30
2018-09-09T01:15:15.746Z,14.20
2018-09-09T01:17:44.222Z,14.20
2018-09-09T01:20:12.710Z,14.20
2018-09-09T01:22:41.157Z,14.10
2018-09-09T01:25:09.673Z,14.10
2018-09-09T01:27:38.161Z,14.10
2018-09-09T01:30:06.652Z,14.10
2018-09-09T01:32:35.210Z,14.10
2018-09-09T01:35:03.821Z,14.10
2018-09-09T01:37:32.355Z,14.10
2018-09-09T01:40:00.821Z,14.20
2018-09-09T01:42:29.292Z,14.10
2018-09-09T01:44:57.851Z,14.10
2018-09-09T01:47:26.335Z,14.10
2018-09-09T01:49:54.833Z,14.10
2018-09-09T01:52:23.317Z,14.10
2018-09-09T01:54:51.740Z,14.10
2018-09-09T01:57:20.221Z,14.10
2018-09-09T01:59:48.673Z,14.10
2018-09-09T02:02:17.111Z,14.10
2018-09-09T02:04:45.579Z,14.10
2018-09-09T02:07:14.097Z,14.10
2018-09-09T02:09:42.667Z,14.10
2018-09-09T02:12:11.102Z,14.10
2018-09-09T02:14:39.582Z,14.00
2018-09-09T02:17:08.114Z,14.00
2018-09-09T02:19:36.707Z,14.00
2018-09-09T02:22:05.160Z,14.00
2018-09-09T02:24:33.632Z,14.00
2018-09-09T02:27:02.878Z,14.00
2018-09-09T02:29:31.320Z,14.00
2018-09-09T02:31:59.768Z,14.00
2018-09-09T02:34:28.222Z,14.00
2018-09-09T02:36:56.682Z,14.00
2018-09-09T02:39:25.119Z,14.00
2018-09-09T02:41:53.582Z,13.90
2018-09-09T02:44:22.004Z,13.90
2018-09-09T02:46:50.448Z,13.90
2018-09-09T02:49:18.896Z,13.90
2018-09-09T02:51:47.341Z,13.90
2018-09-09T02:54:15.907Z,13.90
2018-09-09T02:56:44.352Z,13.90
2018-09-09T02:59:12.823Z,13.90
2018-09-09T03:01:41.699Z,13.90
2018-09-09T03:04:10.146Z,13.90
2018-09-09T03:06:38.640Z,13.90
2018-09-09T03:09:07.226Z,13.90
2018-09-09T03:11:35.678Z,13.90
2018-09-09T03:14:04.235Z,13.90
2018-09-09T03:16:32.676Z,13.70
2018-09-09T03:19:01.113Z,13.70
2018-09-09T03:21:29.579Z,13.60
2018-09-09T03:23:58.020Z,13.60
2018-09-09T03:26:26.596Z,13.60
2018-09-09T03:28:55.275Z,13.60
2018-09-09T03:31:23.656Z,13.60
2018-09-09T03:33:52.117Z,13.60
2018-09-09T03:36:20.576Z,13.60
2018-09-09T03:38:49.044Z,13.50
2018-09-09T03:41:17.510Z,13.40
2018-09-09T03:43:45.999Z,13.30
2018-09-09T03:46:14.533Z,13.20
2018-09-09T03:48:42.996Z,13.20
2018-09-09T03:51:11.481Z,13.20
2018-09-09T03:53:39.945Z,13.10
2018-09-09T03:56:08.423Z,13.10
2018-09-09T03:58:36.875Z,13.20
2018-09-09T04:01:05.460Z,13.20
2018-09-09T04:03:33.986Z,13.20
2018-09-09T04:06:02.465Z,13.30
2018-09-09T04:08:30.945Z,13.30
2018-09-09T04:10:59.537Z,13.20
2018-09-09T04:13:27.987Z,13.20
2018-09-09T04:15:56.456Z,13.20
2018-09-09T04:18:25.009Z,13.10
2018-09-09T04:20:53.455Z,13.10
2018-09-09T04:23:21.910Z,13.00
2018-09-09T04:25:50.401Z,13.00
2018-09-09T04:28:18.886Z,13.00
2018-09-09T04:30:47.374Z,12.90
2018-09-09T04:33:15.826Z,12.90
2018-09-09T04:35:44.328Z,12.80
2018-09-09T04:38:12.797Z,12.80
2018-09-09T04:40:41.236Z,12.80
2018-09-09T04:43:09.777Z,12.80
2018-09-09T04:45:38.243Z,12.70
2018-09-09T04:48:06.728Z,12.70
2018-09-09T04:50:35.187Z,12.60
2018-09-09T04:53:03.658Z,12.60
2018-09-09T04:55:32.126Z,12.70
2018-09-09T04:58:00.566Z,12.70
2018-09-09T05:00:29.034Z,12.70
2018-09-09T05:02:57.528Z,12.70
2018-09-09T05:05:26.071Z,12.70
2018-09-09T05:07:54.542Z,12.80
2018-09-09T05:10:23.028Z,12.80
2018-09-09T05:12:51.527Z,12.80
2018-09-09T05:15:20.139Z,12.80
2018-09-09T05:17:48.751Z,12.80
2018-09-09T05:20:17.233Z,12.90
2018-09-09T05:22:45.700Z,12.90
2018-09-09T05:25:14.159Z,12.90
2018-09-09T05:27:42.597Z,13.00
2018-09-09T05:30:11.117Z,13.20
2018-09-09T05:32:39.565Z,13.30
2018-09-09T05:35:08.331Z,13.30
2018-09-09T05:37:36.826Z,13.30
2018-09-09T05:40:05.560Z,13.50
2018-09-09T05:42:34.010Z,13.60
2018-09-09T05:45:02.442Z,13.80
2018-09-09T05:47:30.928Z,14.10
2018-09-09T05:49:59.418Z,14.20
2018-09-09T05:52:27.913Z,14.40
2018-09-09T05:54:56.342Z,14.60
2018-09-09T05:57:24.866Z,14.80
2018-09-09T05:59:53.363Z,15.00
2018-09-09T06:02:21.813Z,15.10
2018-09-09T06:04:50.302Z,15.10
2018-09-09T06:07:18.774Z,15.30
2018-09-09T06:09:47.253Z,15.40
2018-09-09T06:12:15.718Z,15.60
2018-09-09T06:14:44.285Z,15.70
2018-09-09T06:17:12.890Z,15.70
2018-09-09T06:19:41.385Z,15.90
2018-09-09T06:22:09.855Z,16.00
2018-09-09T06:24:39.259Z,16.10
2018-09-09T06:27:07.867Z,16.30
2018-09-09T06:29:36.416Z,16.50
2018-09-09T06:32:04.910Z,16.70
2018-09-09T06:34:33.693Z,16.70
2018-09-09T06:37:02.181Z,16.70
2018-09-09T06:39:30.673Z,16.80
2018-09-09T06:41:59.133Z,16.90
2018-09-09T06:44:27.655Z,17.00
2018-09-09T06:46:56.237Z,17.00
2018-09-09T06:49:24.723Z,16.90
2018-09-09T06:51:53.238Z,16.90
2018-09-09T06:54:21.695Z,16.80
2018-09-09T06:56:50.183Z,16.80
2018-09-09T06:59:18.647Z,16.80
2018-09-09T07:01:47.095Z,16.90
2018-09-09T07:04:15.532Z,17.00
2018-09-09T07:06:44.030Z,17.00
2018-09-09T07:09:12.489Z,17.20
2018-09-09T07:11:41.137Z,17.40
2018-09-09T07:14:09.575Z,17.60
2018-09-09T07:16:38.034Z,17.80
2018-09-09T07:19:06.557Z,18.00
2018-09-09T07:21:35.031Z,18.30
2018-09-09T07:24:03.599Z,18.40
2018-09-09T07:26:32.080Z,18.60
2018-09-09T07:29:00.560Z,18.60
2018-09-09T07:31:29.165Z,18.80
2018-09-09T07:33:58.561Z,19.00
2018-09-09T07:36:27.135Z,19.20
2018-09-09T07:38:55.602Z,19.30
2018-09-09T07:41:23.993Z,19.40
2018-09-09T07:43:52.426Z,19.40
2018-09-09T07:46:20.935Z,19.40
2018-09-09T07:48:49.386Z,19.30
2018-09-09T07:51:17.865Z,19.40
2018-09-09T07:53:46.337Z,19.50
2018-09-09T07:56:14.807Z,19.60
2018-09-09T07:58:43.353Z,19.70
2018-09-09T08:01:11.812Z,19.80
2018-09-09T08:03:40.375Z,20.00
2018-09-09T08:06:08.961Z,20.20
2018-09-09T08:08:37.467Z,20.30
2018-09-09T08:11:05.943Z,20.50
2018-09-09T08:13:34.541Z,20.60
2018-09-09T08:16:03.163Z,20.70
2018-09-09T08:18:31.791Z,20.90
2018-09-09T08:21:00.283Z,21.00
2018-09-09T08:23:28.827Z,21.10
2018-09-09T08:25:57.416Z,21.30
2018-09-09T08:28:26.409Z,21.50
2018-09-09T08:30:54.995Z,21.70
2018-09-09T08:33:23.448Z,21.80
2018-09-09T08:35:51.934Z,21.90
2018-09-09T08:38:20.504Z,22.00
2018-09-09T08:40:48.962Z,22.10
2018-09-09T08:43:17.450Z,22.20
2018-09-09T08:45:45.887Z,22.20
2018-09-09T08:48:14.404Z,22.20
2018-09-09T08:50:42.879Z,22.50
2018-09-09T08:53:11.465Z,22.60
2018-09-09T08:55:40.151Z,22.70
2018-09-09T08:58:08.651Z,22.90
2018-09-09T09:00:37.180Z,23.20
2018-09-09T09:03:06.316Z,23.30
2018-09-09T09:05:34.804Z,23.30
2018-09-09T09:08:04.048Z,23.40
2018-09-09T09:10:33.094Z,23.60
2018-09-09T09:13:01.575Z,23.70
2018-09-09T09:15:30.009Z,23.70
2018-09-09T09:17:58.467Z,23.80
2018-09-09T09:20:26.940Z,24.00
2018-09-09T09:22:55.389Z,24.30
2018-09-09T09:25:23.871Z,24.70
2018-09-09T09:27:52.427Z,24.90
2018-09-09T09:30:20.950Z,24.90
2018-09-09T09:32:49.913Z,24.90
2018-09-09T09:35:18.420Z,24.90
2018-09-09T09:37:46.887Z,24.70
2018-09-09T09:40:15.461Z,24.70
2018-09-09T09:42:43.950Z,24.70
2018-09-09T09:45:12.543Z,24.80
2018-09-09T09:47:41.081Z,25.00
2018-09-09T09:50:09.531Z,25.10
2018-09-09T09:52:37.993Z,25.20
2018-09-09T09:55:06.519Z,25.40
2018-09-09T09:57:34.962Z,25.70
2018-09-09T10:00:03.554Z,25.80
2018-09-09T10:02:32.021Z,25.70
2018-09-09T10:05:00.516Z,25.90
2018-09-09T10:07:29.021Z,25.50
2018-09-09T10:09:57.571Z,25.60
2018-09-09T10:12:26.067Z,25.80
2018-09-09T10:14:54.582Z,26.10
2018-09-09T10:17:23.078Z,26.30
2018-09-09T10:19:51.582Z,26.40
2018-09-09T10:22:20.120Z,26.10
2018-09-09T10:24:48.631Z,26.10
2018-09-09T10:27:17.092Z,26.00
2018-09-09T10:29:45.549Z,26.10
2018-09-09T10:32:14.041Z,26.20
2018-09-09T10:34:42.559Z,26.30
2018-09-09T10:37:11.042Z,26.50
2018-09-09T10:39:39.520Z,26.60
2018-09-09T10:42:08.014Z,26.70
2018-09-09T10:44:36.497Z,26.70
2018-09-09T10:47:05.201Z,26.90
2018-09-09T10:49:33.637Z,26.90
2018-09-09T10:52:02.133Z,27.00
2018-09-09T10:54:30.617Z,27.00
2018-09-09T10:56:59.075Z,27.20
2018-09-09T10:59:27.541Z,27.30
2018-09-09T11:01:56.022Z,27.30
2018-09-09T11:04:24.551Z,27.30
2018-09-09T11:06:54.483Z,27.40
2018-09-09T11:09:22.923Z,27.40
2018-09-09T11:11:51.391Z,27.50
2018-09-09T11:14:19.847Z,27.60
2018-09-09T11:16:48.341Z,27.80
2018-09-09T11:19:16.868Z,27.90
2018-09-09T11:21:45.396Z,27.80
2018-09-09T11:24:13.928Z,27.80
2018-09-09T11:26:42.387Z,27.90
2018-09-09T11:29:11.331Z,28.00
2018-09-09T11:31:39.842Z,27.90
2018-09-09T11:34:08.541Z,27.80
2018-09-09T11:36:37.023Z,27.60
2018-09-09T11:39:07.481Z,27.50
2018-09-09T11:41:36.375Z,27.80
2018-09-09T11:44:04.967Z,27.80
2018-09-09T11:46:33.502Z,27.90
2018-09-09T11:49:03.338Z,27.70
2018-09-09T11:51:32.592Z,27.60
2018-09-09T11:54:01.211Z,27.50
2018-09-09T11:56:29.802Z,27.60
2018-09-09T11:58:59.573Z,27.70
2018-09-09T12:01:28.061Z,27.80
2018-09-09T12:03:56.575Z,28.00
2018-09-09T12:06:25.089Z,28.20
2018-09-09T12:08:55.027Z,28.30
2018-09-09T12:11:23.620Z,28.40
2018-09-09T12:13:52.372Z,28.60
2018-09-09T12:16:21.031Z,28.60
2018-09-09T12:18:49.656Z,28.50
2018-09-09T12:21:18.198Z,28.10
2018-09-09T12:23:46.808Z,27.90
2018-09-09T12:26:15.331Z,27.80
2018-09-09T12:28:43.861Z,27.50
2018-09-09T12:31:12.384Z,27.60
2018-09-09T12:33:40.897Z,27.80
2018-09-09T12:36:09.492Z,28.10
2018-09-09T12:38:38.130Z,28.30
2018-09-09T12:41:07.267Z,28.40
2018-09-09T12:43:41.732Z,28.40
2018-09-09T12:46:15.758Z,28.40
2018-09-09T12:48:50.292Z,28.60
2018-09-09T12:51:18.838Z,28.70
2018-09-09T12:53:47.314Z,28.70
2018-09-09T12:56:15.841Z,28.60
2018-09-09T12:58:44.905Z,28.60
2018-09-09T13:01:13.635Z,28.70
2018-09-09T13:03:42.408Z,28.70
2018-09-09T13:06:11.244Z,28.50
2018-09-09T13:08:40.080Z,28.50
2018-09-09T13:11:09.121Z,28.70
2018-09-09T13:13:37.675Z,28.50
2018-09-09T13:16:06.486Z,28.50
2018-09-09T13:18:35.130Z,28.70
2018-09-09T13:21:03.652Z,28.90
2018-09-09T13:23:32.764Z,29.10
2018-09-09T13:26:01.424Z,29.20
2018-09-09T13:28:29.936Z,29.40
2018-09-09T13:30:58.436Z,29.50
2018-09-09T13:33:26.942Z,29.30
2018-09-09T13:35:55.666Z,29.10
2018-09-09T13:38:24.348Z,28.90
2018-09-09T13:40:52.919Z,28.80
2018-09-09T13:43:21.538Z,28.60
2018-09-09T13:45:50.067Z,28.50
2018-09-09T13:48:18.907Z,28.30
2018-09-09T13:50:47.512Z,28.50
2018-09-09T13:53:15.960Z,28.50
2018-09-09T13:55:44.673Z,28.30
2018-09-09T13:58:13.307Z,27.50
2018-09-09T14:00:41.897Z,27.00
2018-09-09T14:03:10.589Z,27.10
2018-09-09T14:05:39.072Z,27.20
2018-09-09T14:08:07.845Z,27.40
2018-09-09T14:10:36.400Z,27.60
2018-09-09T14:13:04.928Z,27.70
2018-09-09T14:15:33.567Z,27.60
2018-09-09T14:18:03.054Z,27.70
2018-09-09T14:20:31.529Z,27.80
2018-09-09T14:23:00.611Z,27.80
2018-09-09T14:25:29.280Z,27.90
2018-09-09T14:27:57.832Z,27.90
2018-09-09T14:30:26.465Z,28.00
2018-09-09T14:32:55.041Z,28.10
2018-09-09T14:35:23.667Z,27.80
2018-09-09T14:37:52.217Z,27.60
2018-09-09T14:40:20.805Z,27.50
2018-09-09T14:42:49.963Z,27.30
2018-09-09T14:45:18.343Z,27.20
2018-09-09T14:47:46.855Z,27.20
2018-09-09T14:50:15.377Z,27.30
2018-09-09T14:52:44.153Z,27.00
2018-09-09T14:55:12.866Z,27.10
2018-09-09T14:57:41.460Z,27.20
2018-09-09T15:00:12.297Z,27.20
2018-09-09T15:02:40.880Z,27.40
2018-09-09T15:05:09.347Z,27.30
2018-09-09T15:07:37.843Z,27.30
2018-09-09T15:10:06.827Z,27.20
2018-09-09T15:12:35.349Z,27.10
2018-09-09T15:15:03.931Z,27.00
2018-09-09T15:17:33.321Z,26.80
2018-09-09T15:20:01.890Z,26.70
2018-09-09T15:22:30.424Z,26.60
2018-09-09T15:24:58.910Z,26.50
2018-09-09T15:27:27.402Z,26.50
2018-09-09T15:29:55.905Z,26.50
2018-09-09T15:32:24.527Z,26.30
2018-09-09T15:34:53.020Z,26.20
2018-09-09T15:37:21.541Z,26.10
2018-09-09T15:39:50.138Z,25.90
2018-09-09T15:42:18.611Z,25.80
2018-09-09T15:44:47.279Z,25.70
2018-09-09T15:47:15.808Z,25.70
2018-09-09T15:49:44.306Z,25.60
2018-09-09T15:52:14.375Z,25.50
2018-09-09T15:54:42.918Z,25.40
2018-09-09T15:57:11.551Z,25.40
2018-09-09T15:59:40.081Z,25.30
2018-09-09T16:02:08.561Z,25.20
2018-09-09T16:04:37.721Z,25.10
2018-09-09T16:07:06.215Z,25.00
2018-09-09T16:09:35.330Z,24.90
2018-09-09T16:12:03.885Z,24.90
2018-09-09T16:14:32.427Z,24.80
2018-09-09T16:17:00.913Z,24.80
2018-09-09T16:19:29.395Z,24.70
2018-09-09T16:21:57.936Z,24.70
2018-09-09T16:24:26.572Z,24.70
2018-09-09T16:26:55.000Z,24.60
2018-09-09T16:29:24.430Z,24.50
2018-09-09T16:31:52.885Z,24.40
2018-09-09T16:34:21.402Z,24.30
2018-09-09T16:36:50.091Z,24.20
2018-09-09T16:39:18.694Z,24.10
2018-09-09T16:41:47.177Z,24.00
2018-09-09T16:44:16.374Z,23.90
2018-09-09T16:46:44.902Z,23.80
2018-09-09T16:49:13.389Z,23.80
2018-09-09T16:51:41.881Z,23.80
2018-09-09T16:54:10.413Z,23.70
2018-09-09T16:56:39.162Z,23.70
2018-09-09T16:59:07.631Z,23.60
2018-09-09T17:01:36.088Z,23.60
2018-09-09T17:04:04.607Z,23.50
2018-09-09T17:06:36.449Z,23.40
2018-09-09T17:09:08.164Z,23.40
2018-09-09T17:11:36.666Z,23.30
2018-09-09T17:14:05.477Z,23.30
2018-09-09T17:16:33.964Z,23.20
2018-09-09T17:19:02.548Z,23.10
2018-09-09T17:21:31.140Z,23.10
2018-09-09T17:23:59.650Z,23.00
2018-09-09T17:26:28.197Z,22.90
2018-09-09T17:28:56.737Z,22.80
2018-09-09T17:31:25.336Z,22.70
2018-09-09T17:33:53.957Z,22.70
2018-09-09T17:36:23.088Z,22.60
2018-09-09T17:38:51.742Z,22.50
2018-09-09T17:41:20.362Z,22.40
2018-09-09T17:43:49.152Z,22.30
2018-09-09T17:46:17.920Z,22.30
2018-09-09T17:48:46.853Z,22.20
2018-09-09T17:51:15.534Z,22.10
2018-09-09T17:53:44.361Z,22.10
2018-09-09T17:56:12.982Z,22.00
2018-09-09T17:58:41.594Z,22.00
2018-09-09T18:01:10.280Z,21.90
2018-09-09T18:03:39.153Z,21.80
2018-09-09T18:06:07.729Z,21.80
2018-09-09T18:08:36.307Z,21.70
2018-09-09T18:11:05.922Z,21.70
2018-09-09T18:13:35.700Z,21.60
2018-09-09T18:16:04.717Z,21.60
2018-09-09T18:18:33.546Z,21.50
2018-09-09T18:21:02.722Z,21.40
2018-09-09T18:23:31.558Z,21.30
2018-09-09T18:26:00.801Z,21.30
2018-09-09T18:28:29.948Z,21.20
2018-09-09T18:30:59.167Z,21.10
2018-09-09T18:33:28.329Z,21.10
2018-09-09T18:35:57.511Z,20.90
2018-09-09T18:38:27.718Z,20.80
2018-09-09T18:40:57.202Z,20.80
2018-09-09T18:43:26.697Z,20.70
2018-09-09T18:45:57.135Z,20.60
2018-09-09T18:48:26.451Z,20.50
2018-09-09T18:50:56.133Z,20.40
2018-09-09T18:53:25.631Z,20.40
2018-09-09T18:55:55.338Z,20.40
2018-09-09T18:58:24.378Z,20.40
2018-09-09T19:00:53.576Z,20.30
2018-09-09T19:03:22.618Z,20.20
2018-09-09T19:05:51.964Z,20.20
2018-09-09T19:08:22.008Z,20.20
2018-09-09T19:10:51.237Z,20.00
2018-09-09T19:13:21.151Z,20.00
2018-09-09T19:15:51.118Z,19.90
2018-09-09T19:18:20.608Z,19.90
2018-09-09T19:20:50.049Z,19.80
2018-09-09T19:23:18.946Z,19.70
2018-09-09T19:25:48.810Z,19.70
2018-09-09T19:28:18.205Z,19.70
2018-09-09T19:30:47.404Z,19.70
2018-09-09T19:33:16.267Z,19.60
2018-09-09T19:35:45.689Z,19.60
2018-09-09T19:38:14.873Z,19.50
2018-09-09T19:40:44.177Z,19.40
2018-09-09T19:43:14.192Z,19.30
2018-09-09T19:45:43.583Z,19.30
2018-09-09T19:48:13.124Z,19.20
2018-09-09T19:50:43.644Z,19.20
2018-09-09T19:53:13.283Z,19.10
2018-09-09T19:55:42.627Z,19.00
2018-09-09T19:58:11.800Z,18.80
2018-09-09T20:00:41.193Z,18.70
2018-09-09T20:03:10.676Z,18.70
2018-09-09T20:05:39.686Z,18.60
2018-09-09T20:08:08.881Z,18.60
2018-09-09T20:10:38.082Z,18.50
2018-09-09T20:13:07.159Z,18.40
2018-09-09T20:15:36.713Z,18.30
2018-09-09T20:18:05.843Z,18.30
2018-09-09T20:20:35.936Z,18.20
2018-09-09T20:23:04.752Z,18.20
2018-09-09T20:25:34.069Z,18.20
2018-09-09T20:28:02.669Z,18.10
2018-09-09T20:30:31.480Z,18.10
2018-09-09T20:33:00.348Z,18.10
2018-09-09T20:35:29.763Z,18.10
2018-09-09T20:37:59.441Z,18.00
2018-09-09T20:40:28.194Z,17.90
2018-09-09T20:42:57.773Z,17.90
2018-09-09T20:45:26.921Z,17.80
2018-09-09T20:47:55.432Z,17.80
2018-09-09T20:50:24.288Z,17.80
2018-09-09T20:52:53.619Z,17.80
2018-09-09T20:55:22.207Z,17.70
2018-09-09T20:57:50.722Z,17.70
2018-09-09T21:00:19.903Z,17.60
2018-09-09T21:02:48.397Z,17.60
2018-09-09T21:05:16.904Z,17.50
2018-09-09T21:07:45.421Z,17.50
2018-09-09T21:10:13.948Z,17.40
2018-09-09T21:12:42.525Z,17.40
2018-09-09T21:15:11.049Z,17.40
2018-09-09T21:17:39.626Z,17.40
2018-09-09T21:20:08.137Z,17.40
2018-09-09T21:22:36.677Z,17.40
2018-09-09T21:25:05.311Z,17.30
2018-09-09T21:27:33.814Z,17.30
2018-09-09T21:30:02.406Z,17.30
2018-09-09T21:32:30.919Z,17.30
2018-09-09T21:34:59.403Z,17.30
2018-09-09T21:37:27.875Z,17.30
2018-09-09T21:39:56.363Z,17.20
2018-09-09T21:42:24.909Z,17.10
2018-09-09T21:44:53.387Z,17.10
2018-09-09T21:47:22.210Z,17.00
2018-09-09T21:49:50.775Z,17.00
2018-09-09T21:52:19.379Z,17.00
2018-09-09T21:54:47.949Z,16.90
2018-09-09T21:57:16.400Z,16.90
2018-09-09T21:59:44.868Z,16.80
2018-09-09T22:02:14.390Z,16.80
2018-09-09T22:04:43.104Z,16.70
2018-09-09T22:07:13.683Z,16.70
2018-09-09T22:09:43.672Z,16.70
2018-09-09T22:12:13.020Z,16.60
2018-09-09T22:14:42.390Z,16.50
2018-09-09T22:17:11.634Z,16.50
2018-09-09T22:19:40.179Z,16.40
2018-09-09T22:22:08.772Z,16.50
2018-09-09T22:24:37.305Z,16.40
2018-09-09T22:27:05.816Z,16.50
2018-09-09T22:29:34.271Z,16.50
2018-09-09T22:32:02.786Z,16.40
2018-09-09T22:34:31.265Z,16.40
2018-09-09T22:36:59.720Z,16.40
2018-09-09T22:39:28.167Z,16.40
2018-09-09T22:41:56.676Z,16.40
2018-09-09T22:44:25.227Z,16.40
2018-09-09T22:46:53.703Z,16.40
2018-09-09T22:49:22.214Z,16.40
2018-09-09T22:51:50.695Z,16.30
2018-09-09T22:54:19.191Z,16.30
2018-09-09T22:56:47.669Z,16.30
2018-09-09T22:59:16.200Z,16.30
2018-09-09T23:01:44.748Z,16.20
2018-09-09T23:04:13.243Z,16.20
2018-09-09T23:06:41.692Z,16.20
2018-09-09T23:09:11.918Z,16.10
2018-09-09T23:11:40.367Z,16.10
2018-09-09T23:14:09.124Z,16.10
2018-09-09T23:16:37.792Z,16.00
2018-09-09T23:19:06.624Z,16.00
2018-09-09T23:21:35.114Z,16.00
2018-09-09T23:24:03.645Z,15.90
2018-09-09T23:26:32.129Z,15.80
2018-09-09T23:29:00.618Z,15.80
2018-09-09T23:31:29.127Z,15.70
2018-09-09T23:33:57.596Z,15.70
2018-09-09T23:36:26.124Z,15.60
2018-09-09T23:38:54.603Z,15.60
2018-09-09T23:41:23.103Z,15.60
2018-09-09T23:43:51.872Z,15.60
2018-09-09T23:46:20.322Z,15.60
2018-09-09T23:48:48.790Z,15.60
2018-09-09T23:51:17.287Z,15.60
2018-09-09T23:53:46.341Z,15.60
2018-09-09T23:56:14.812Z,15.50
2018-09-09T23:58:43.265Z,15.50
